Time,TemperatureF,DewpointF,PressureIn,WindDirection,WindDirectionDegrees,WindSpeedMPH,WindSpeedGustMPH,Humidity,HourlyPrecipIn,Conditions,Clouds,dailyrainin,SoftwareType,DateUTC
2013-03-08 00:02:00,37.3,31.6,30.16,SSE,158,0.0,3.5,79,0.00,,,-99.99,Meteorologica,2013-03-08 06:02:00,
2013-03-08 00:07:00,37.1,31.5,30.16,SSE,149,0.0,0.0,80,0.00,,,-99.99,Meteorologica,2013-03-08 06:07:00,
2013-03-08 00:12:00,37.1,31.5,30.16,SSE,166,1.7,4.3,80,0.00,,,-99.99,Meteorologica,2013-03-08 06:12:00,
2013-03-08 00:18:00,36.9,31.4,30.15,SE,145,0.0,0.0,80,0.00,,,-99.99,Meteorologica,2013-03-08 06:18:00,
2013-03-08 00:23:00,36.8,31.4,30.16,SE,146,4.5,6.9,80,0.00,,,-99.99,Meteorologica,2013-03-08 06:23:00,
2013-03-08 00:28:00,36.7,31.3,30.16,South,184,0.0,4.6,80,0.00,,,-99.99,Meteorologica,2013-03-08 06:28:00,
2013-03-08 00:33:00,36.6,31.3,30.15,ESE,105,0.8,6.1,81,0.00,,,-99.99,Meteorologica,2013-03-08 06:33:00,
2013-03-08 00:38:00,36.5,31.3,30.15,NE,55,0.0,6.7,81,0.00,,,-99.99,Meteorologica,2013-03-08 06:38:00,
2013-03-08 00:43:00,36.5,31.3,30.15,SE,129,0.9,3.3,81,0.00,,,-99.99,Meteorologica,2013-03-08 06:43:00,
2013-03-08 00:48:00,36.4,31.3,30.16,SE,127,3.2,5.3,81,0.00,,,-99.99,Meteorologica,2013-03-08 06:48:00,
2013-03-08 00:53:00,36.3,31.3,30.16,South,170,1.9,8.6,81,0.00,,,-99.99,Meteorologica,2013-03-08 06:53:00,
2013-03-08 00:58:00,36.6,31.4,30.16,SE,145,1.8,8.6,81,0.00,,,-99.99,Meteorologica,2013-03-08 06:58:00,
2013-03-08 01:03:00,36.6,31.4,30.16,SE,146,0.4,5.1,81,0.00,,,-99.99,Meteorologica,2013-03-08 07:03:00,
2013-03-08 01:08:00,36.6,31.5,30.16,East,94,0.6,5.7,81,0.00,,,-99.99,Meteorologica,2013-03-08 07:08:00,
2013-03-08 01:13:00,36.6,31.5,30.16,SSE,166,2.2,5.7,81,0.00,,,-99.99,Meteorologica,2013-03-08 07:13:00,
2013-03-08 01:18:00,36.6,31.4,30.16,SSE,152,4.1,8.4,81,0.00,,,-99.99,Meteorologica,2013-03-08 07:18:00,
2013-03-08 01:23:00,36.6,31.4,30.16,East,98,0.4,8.2,81,0.00,,,-99.99,Meteorologica,2013-03-08 07:23:00,
2013-03-08 01:28:00,36.6,31.4,30.16,SSE,150,1.5,5.9,81,0.00,,,-99.99,Meteorologica,2013-03-08 07:28:00,
2013-03-08 01:33:00,36.5,31.4,30.16,South,173,2.5,7.2,81,0.00,,,-99.99,Meteorologica,2013-03-08 07:33:00,
2013-03-08 01:38:00,36.4,31.3,30.16,South,180,4.8,7.1,81,0.00,,,-99.99,Meteorologica,2013-03-08 07:38:00,
2013-03-08 01:43:00,36.3,31.2,30.16,SE,131,4.4,7.1,81,0.00,,,-99.99,Meteorologica,2013-03-08 07:43:00,
2013-03-08 01:48:00,36.3,31.3,30.15,ESE,119,5.4,7.6,82,0.00,,,-99.99,Meteorologica,2013-03-08 07:48:00,
2013-03-08 01:53:00,36.3,31.3,30.16,SSW,196,0.0,5.2,81,0.00,,,-99.99,Meteorologica,2013-03-08 07:53:00,
2013-03-08 01:58:00,36.4,31.3,30.16,SE,132,0.1,6.2,81,0.00,,,-99.99,Meteorologica,2013-03-08 07:58:00,
2013-03-08 02:03:00,36.4,31.3,30.15,SSE,152,3.1,7.5,81,0.00,,,-99.99,Meteorologica,2013-03-08 08:03:00,
2013-03-08 02:08:00,36.4,31.3,30.15,South,171,4.7,6.9,81,0.00,,,-99.99,Meteorologica,2013-03-08 08:08:00,
2013-03-08 02:13:00,36.4,31.3,30.15,South,179,5.0,10.7,81,0.00,,,-99.99,Meteorologica,2013-03-08 08:13:00,
2013-03-08 02:18:00,36.5,31.4,30.15,SSE,164,2.8,5.9,81,0.00,,,-99.99,Meteorologica,2013-03-08 08:18:00,
2013-03-08 02:23:00,36.5,31.4,30.15,SSE,160,4.6,7.4,81,0.00,,,-99.99,Meteorologica,2013-03-08 08:23:00,
2013-03-08 02:28:00,36.4,31.3,30.15,South,179,3.9,7.2,81,0.00,,,-99.99,Meteorologica,2013-03-08 08:28:00,
2013-03-08 02:33:00,36.4,31.3,30.15,SE,135,3.1,9.6,81,0.00,,,-99.99,Meteorologica,2013-03-08 08:33:00,
2013-03-08 02:38:00,36.4,31.4,30.15,SE,129,0.0,5.3,81,0.00,,,-99.99,Meteorologica,2013-03-08 08:38:00,
2013-03-08 02:43:00,36.5,31.4,30.15,South,190,4.5,9.9,81,0.00,,,-99.99,Meteorologica,2013-03-08 08:43:00,
2013-03-08 02:48:00,36.3,31.3,30.15,SSE,151,4.2,8.4,81,0.00,,,-99.99,Meteorologica,2013-03-08 08:48:00,
2013-03-08 02:53:00,36.2,31.2,30.14,SSE,150,3.3,7.9,82,0.00,,,-99.99,Meteorologica,2013-03-08 08:53:00,
2013-03-08 02:58:00,36.1,31.3,30.14,South,180,0.0,6.7,82,0.00,,,-99.99,Meteorologica,2013-03-08 08:58:00,
2013-03-08 03:03:00,35.8,31.1,30.14,South,187,5.0,7.9,82,0.00,,,-99.99,Meteorologica,2013-03-08 09:03:00,
2013-03-08 03:08:00,35.6,31.0,30.14,SW,218,0.0,8.7,83,0.00,,,-99.99,Meteorologica,2013-03-08 09:08:00,
2013-03-08 03:13:00,35.5,31.0,30.13,SW,218,0.0,0.0,83,0.00,,,-99.99,Meteorologica,2013-03-08 09:13:00,
2013-03-08 03:18:00,35.5,31.0,30.13,SSW,206,4.1,9.2,83,0.00,,,-99.99,Meteorologica,2013-03-08 09:18:00,
2013-03-08 03:23:00,35.5,31.0,30.13,SSW,204,3.5,7.3,83,0.00,,,-99.99,Meteorologica,2013-03-08 09:23:00,
2013-03-08 03:28:00,35.5,31.0,30.13,South,184,3.7,5.5,83,0.00,,,-99.99,Meteorologica,2013-03-08 09:28:00,
2013-03-08 03:33:00,35.4,31.1,30.13,SSE,166,4.1,5.5,84,0.00,,,-99.99,Meteorologica,2013-03-08 09:33:00,
2013-03-08 03:38:00,35.5,31.1,30.11,South,177,0.0,4.5,83,0.00,,,-99.99,Meteorologica,2013-03-08 09:38:00,
2013-03-08 03:43:00,35.4,31.0,30.11,SSE,165,5.5,7.8,83,0.00,,,-99.99,Meteorologica,2013-03-08 09:43:00,
2013-03-08 03:48:00,35.4,31.0,30.11,SW,223,2.7,7.4,84,0.00,,,-99.99,Meteorologica,2013-03-08 09:48:00,
2013-03-08 03:53:00,35.4,31.0,30.11,SE,143,4.5,7.2,83,0.00,,,-99.99,Meteorologica,2013-03-08 09:53:00,
2013-03-08 03:59:00,35.4,31.0,30.11,South,180,3.4,5.3,84,0.00,,,-99.99,Meteorologica,2013-03-08 09:59:00,
2013-03-08 04:04:00,35.3,31.0,30.11,South,169,0.7,7.2,84,0.00,,,-99.99,Meteorologica,2013-03-08 10:04:00,
2013-03-08 04:09:00,35.3,31.0,30.11,SSE,163,3.2,6.1,84,0.00,,,-99.99,Meteorologica,2013-03-08 10:09:00,
2013-03-08 04:14:00,35.2,31.0,30.11,SE,146,1.0,6.0,84,0.00,,,-99.99,Meteorologica,2013-03-08 10:14:00,
2013-03-08 04:19:00,35.2,31.0,30.11,SSE,168,4.2,5.3,84,0.00,,,-99.99,Meteorologica,2013-03-08 10:19:00,
2013-03-08 04:24:00,35.3,31.1,30.11,South,187,1.4,6.1,84,0.00,,,-99.99,Meteorologica,2013-03-08 10:24:00,
2013-03-08 04:29:00,35.4,31.1,30.11,SSE,155,0.0,0.0,84,0.00,,,-99.99,Meteorologica,2013-03-08 10:29:00,
2013-03-08 04:34:00,35.4,31.1,30.11,SSE,155,0.0,0.0,84,0.00,,,-99.99,Meteorologica,2013-03-08 10:34:00,
2013-03-08 04:39:00,35.5,31.2,30.11,SSE,162,0.6,4.7,84,0.00,,,-99.99,Meteorologica,2013-03-08 10:39:00,
2013-03-08 04:44:00,35.5,31.3,30.11,South,174,5.1,7.4,84,0.00,,,-99.99,Meteorologica,2013-03-08 10:44:00,
2013-03-08 04:49:00,35.5,31.2,30.11,SE,129,0.0,4.6,84,0.00,,,-99.99,Meteorologica,2013-03-08 10:49:00,
2013-03-08 04:54:00,35.5,31.2,30.11,SSE,149,3.2,7.3,84,0.00,,,-99.99,Meteorologica,2013-03-08 10:54:00,
2013-03-08 04:59:00,35.6,31.3,30.11,SE,138,2.0,5.3,84,0.00,,,-99.99,Meteorologica,2013-03-08 10:59:00,
2013-03-08 05:04:00,35.8,31.4,30.12,SE,140,4.9,7.8,84,0.00,,,-99.99,Meteorologica,2013-03-08 11:04:00,
2013-03-08 05:09:00,36.0,31.5,30.11,ESE,114,0.0,2.9,83,0.00,,,-99.99,Meteorologica,2013-03-08 11:09:00,
2013-03-08 05:14:00,36.0,31.5,30.12,SSE,153,5.4,7.8,83,0.00,,,-99.99,Meteorologica,2013-03-08 11:14:00,
2013-03-08 05:19:00,36.1,31.6,30.12,SE,132,5.2,8.4,83,0.00,,,-99.99,Meteorologica,2013-03-08 11:19:00,
2013-03-08 05:24:00,36.2,31.7,30.12,SSE,167,3.0,6.4,83,0.00,,,-99.99,Meteorologica,2013-03-08 11:24:00,
2013-03-08 05:29:00,36.2,31.7,30.12,South,176,0.2,8.8,83,0.00,,,-99.99,Meteorologica,2013-03-08 11:29:00,
2013-03-08 05:34:00,36.4,31.8,30.12,SSW,196,4.6,6.4,83,0.00,,,-99.99,Meteorologica,2013-03-08 11:34:00,
2013-03-08 05:39:00,36.4,31.8,30.12,SSW,205,3.9,5.1,83,0.00,,,-99.99,Meteorologica,2013-03-08 11:39:00,
2013-03-08 05:44:00,36.4,31.8,30.13,SE,145,4.4,9.6,83,0.00,,,-99.99,Meteorologica,2013-03-08 11:44:00,
2013-03-08 05:49:00,36.4,31.8,30.12,South,191,5.3,6.8,83,0.00,,,-99.99,Meteorologica,2013-03-08 11:49:00,
2013-03-08 05:54:00,36.4,31.8,30.11,SE,141,2.4,8.7,83,0.00,,,-99.99,Meteorologica,2013-03-08 11:54:00,
2013-03-08 06:00:00,36.4,31.8,30.12,South,184,4.2,7.3,83,0.00,,,-99.99,Meteorologica,2013-03-08 12:00:00,
2013-03-08 06:05:00,36.5,32.0,30.12,SE,127,4.4,7.9,83,0.00,,,-99.99,Meteorologica,2013-03-08 12:05:00,
2013-03-08 06:10:00,36.5,32.0,30.12,SE,125,0.5,6.5,83,0.00,,,-99.99,Meteorologica,2013-03-08 12:10:00,
2013-03-08 06:15:00,36.4,31.9,30.12,South,191,4.3,6.3,83,0.00,,,-99.99,Meteorologica,2013-03-08 12:15:00,
2013-03-08 06:20:00,36.5,32.1,30.13,SSE,159,1.5,7.2,83,0.00,,,-99.99,Meteorologica,2013-03-08 12:20:00,
2013-03-08 06:25:00,36.6,32.2,30.13,East,101,0.0,6.4,83,0.00,,,-99.99,Meteorologica,2013-03-08 12:25:00,
2013-03-08 06:30:00,36.7,32.2,30.13,South,169,5.9,7.8,83,0.00,,,-99.99,Meteorologica,2013-03-08 12:30:00,
2013-03-08 06:35:00,36.7,32.2,30.13,SE,142,4.1,6.1,83,0.00,,,-99.99,Meteorologica,2013-03-08 12:35:00,
2013-03-08 06:40:00,36.8,32.3,30.12,SSE,167,0.0,5.8,83,0.00,,,-99.99,Meteorologica,2013-03-08 12:40:00,
2013-03-08 06:45:00,36.7,32.2,30.12,SE,143,3.2,5.8,83,0.00,,,-99.99,Meteorologica,2013-03-08 12:45:00,
2013-03-08 06:50:00,36.7,32.4,30.11,SE,144,3.9,6.1,84,0.00,,,-99.99,Meteorologica,2013-03-08 12:50:00,
2013-03-08 06:55:00,36.8,32.5,30.11,South,175,0.2,7.0,84,0.00,,,-99.99,Meteorologica,2013-03-08 12:55:00,
2013-03-08 07:00:00,36.9,32.6,30.11,SE,140,4.0,7.7,84,0.00,,,-99.99,Meteorologica,2013-03-08 13:00:00,
2013-03-08 07:05:00,37.2,32.8,30.11,ESE,104,0.0,7.3,83,0.00,,,-99.99,Meteorologica,2013-03-08 13:05:00,
2013-03-08 07:10:00,37.7,33.1,30.11,ESE,107,5.2,9.2,83,0.00,,,-99.99,Meteorologica,2013-03-08 13:10:00,
2013-03-08 07:15:00,38.1,33.2,30.11,SSE,163,5.1,8.4,82,0.00,,,-99.99,Meteorologica,2013-03-08 13:15:00,
2013-03-08 07:20:00,38.5,33.4,30.11,SSE,147,5.2,9.4,81,0.00,,,-99.99,Meteorologica,2013-03-08 13:20:00,
2013-03-08 07:25:00,38.9,33.6,30.11,SE,131,4.6,9.9,81,0.00,,,-99.99,Meteorologica,2013-03-08 13:25:00,
2013-03-08 07:30:00,39.3,33.8,30.11,SE,143,2.8,12.0,80,0.00,,,-99.99,Meteorologica,2013-03-08 13:30:00,
2013-03-08 07:35:00,39.6,34.0,30.11,SE,143,4.7,11.0,80,0.00,,,-99.99,Meteorologica,2013-03-08 13:35:00,
2013-03-08 07:40:00,39.8,34.2,30.11,SE,131,6.2,9.7,80,0.00,,,-99.99,Meteorologica,2013-03-08 13:40:00,
2013-03-08 07:45:00,39.9,34.1,30.11,SE,132,7.0,12.6,79,0.00,,,-99.99,Meteorologica,2013-03-08 13:45:00,
2013-03-08 07:50:00,40.1,34.3,30.11,SSE,149,3.9,8.9,79,0.00,,,-99.99,Meteorologica,2013-03-08 13:50:00,
2013-03-08 07:55:00,40.4,34.4,30.12,ESE,119,6.5,10.0,78,0.00,,,-99.99,Meteorologica,2013-03-08 13:55:00,
2013-03-08 08:00:00,40.7,34.6,30.12,SE,146,5.7,8.6,78,0.00,,,-99.99,Meteorologica,2013-03-08 14:00:00,
2013-03-08 08:05:00,41.0,34.7,30.11,South,177,6.0,10.7,78,0.00,,,-99.99,Meteorologica,2013-03-08 14:05:00,
2013-03-08 08:10:00,41.4,35.0,30.11,SSE,167,2.3,9.9,77,0.00,,,-99.99,Meteorologica,2013-03-08 14:10:00,
2013-03-08 08:15:00,41.9,35.3,30.11,SSE,152,4.2,9.5,77,0.00,,,-99.99,Meteorologica,2013-03-08 14:15:00,
2013-03-08 08:20:00,42.4,35.5,30.11,SSE,148,2.2,7.9,76,0.00,,,-99.99,Meteorologica,2013-03-08 14:20:00,
2013-03-08 08:25:00,42.8,35.6,30.11,SSW,206,4.4,8.6,75,0.00,,,-99.99,Meteorologica,2013-03-08 14:25:00,
2013-03-08 08:30:00,43.2,35.8,30.11,SSE,150,5.4,9.1,74,0.00,,,-99.99,Meteorologica,2013-03-08 14:30:00,
2013-03-08 08:35:00,43.7,36.1,30.11,SSE,160,1.5,8.2,74,0.00,,,-99.99,Meteorologica,2013-03-08 14:35:00,
2013-03-08 08:40:00,44.2,36.3,30.11,ESE,118,2.9,9.6,73,0.00,,,-99.99,Meteorologica,2013-03-08 14:40:00,
2013-03-08 08:45:00,44.7,36.5,30.11,South,173,3.0,10.8,72,0.00,,,-99.99,Meteorologica,2013-03-08 14:45:00,
2013-03-08 08:50:00,45.4,36.8,30.12,SSE,148,5.4,9.8,71,0.00,,,-99.99,Meteorologica,2013-03-08 14:50:00,
2013-03-08 08:55:00,46.0,36.9,30.12,SE,141,4.6,9.6,70,0.00,,,-99.99,Meteorologica,2013-03-08 14:55:00,
2013-03-08 09:00:00,46.3,37.0,30.11,SSE,167,5.8,9.6,69,0.00,,,-99.99,Meteorologica,2013-03-08 15:00:00,
2013-03-08 09:05:00,47.0,37.3,30.11,South,175,3.0,10.3,68,0.00,,,-99.99,Meteorologica,2013-03-08 15:05:00,
2013-03-08 09:10:00,47.5,37.4,30.11,SE,124,3.8,8.4,67,0.00,,,-99.99,Meteorologica,2013-03-08 15:10:00,
2013-03-08 09:15:00,48.0,37.1,30.11,South,185,7.2,11.5,65,0.00,,,-99.99,Meteorologica,2013-03-08 15:15:00,
2013-03-08 09:20:00,48.4,37.3,30.11,SE,125,5.5,11.3,65,0.00,,,-99.99,Meteorologica,2013-03-08 15:20:00,
2013-03-08 09:25:00,48.8,37.5,30.11,South,173,6.5,11.5,64,0.00,,,-99.99,Meteorologica,2013-03-08 15:25:00,
2013-03-08 09:30:00,49.6,37.7,30.11,SSE,160,6.1,12.6,63,0.00,,,-99.99,Meteorologica,2013-03-08 15:30:00,
2013-03-08 09:35:00,50.2,37.9,30.11,SSW,208,5.8,12.1,62,0.00,,,-99.99,Meteorologica,2013-03-08 15:35:00,
2013-03-08 09:40:00,50.7,38.4,30.11,SSE,164,3.7,10.8,62,0.00,,,-99.99,Meteorologica,2013-03-08 15:40:00,
2013-03-08 09:45:00,51.0,38.1,30.11,SSE,163,6.6,14.9,60,0.00,,,-99.99,Meteorologica,2013-03-08 15:45:00,
2013-03-08 09:50:00,51.3,38.0,30.11,SSW,195,7.6,15.7,60,0.00,,,-99.99,Meteorologica,2013-03-08 15:50:00,
2013-03-08 09:55:00,51.5,38.4,30.11,SE,136,2.9,15.4,60,0.00,,,-99.99,Meteorologica,2013-03-08 15:55:00,
2013-03-08 10:00:00,51.5,38.4,30.11,SSE,162,4.9,11.0,60,0.00,,,-99.99,Meteorologica,2013-03-08 16:00:00,
2013-03-08 10:05:00,51.1,38.1,30.11,South,179,4.8,13.1,60,0.00,,,-99.99,Meteorologica,2013-03-08 16:05:00,
2013-03-08 10:10:00,51.1,38.1,30.11,SSW,197,5.6,12.1,60,0.00,,,-99.99,Meteorologica,2013-03-08 16:10:00,
2013-03-08 10:15:00,51.2,38.3,30.11,SE,145,4.9,12.6,61,0.00,,,-99.99,Meteorologica,2013-03-08 16:15:00,
2013-03-08 10:20:00,51.3,38.4,30.11,SSE,166,4.4,11.7,61,0.00,,,-99.99,Meteorologica,2013-03-08 16:20:00,
2013-03-08 10:25:00,51.8,39.1,30.11,SSE,166,3.0,13.2,61,0.00,,,-99.99,Meteorologica,2013-03-08 16:25:00,
2013-03-08 10:30:00,52.6,39.2,30.11,ESE,122,6.0,10.0,59,0.00,,,-99.99,Meteorologica,2013-03-08 16:30:00,
2013-03-08 10:35:00,53.7,39.7,30.11,SSW,197,6.1,13.2,58,0.00,,,-99.99,Meteorologica,2013-03-08 16:35:00,
2013-03-08 10:40:00,54.9,39.9,30.11,SW,224,6.7,12.0,56,0.00,,,-99.99,Meteorologica,2013-03-08 16:40:00,
2013-03-08 10:45:00,55.4,40.3,30.10,SSE,158,8.4,13.0,56,0.00,,,-99.99,Meteorologica,2013-03-08 16:45:00,
2013-03-08 10:50:00,56.1,40.7,30.10,South,170,4.5,13.1,56,0.00,,,-99.99,Meteorologica,2013-03-08 16:50:00,
2013-03-08 10:55:00,56.5,41.1,30.10,South,186,8.2,15.5,56,0.00,,,-99.99,Meteorologica,2013-03-08 16:55:00,
2013-03-08 11:00:00,56.7,40.9,30.10,South,183,6.0,16.9,55,0.00,,,-99.99,Meteorologica,2013-03-08 17:00:00,
2013-03-08 11:05:00,56.6,41.0,30.10,SSE,160,7.8,14.9,55,0.00,,,-99.99,Meteorologica,2013-03-08 17:05:00,
2013-03-08 11:10:00,57.1,41.4,30.10,SE,139,1.1,11.5,55,0.00,,,-99.99,Meteorologica,2013-03-08 17:10:00,
2013-03-08 11:15:00,57.3,41.4,30.10,SSE,152,5.9,11.2,55,0.00,,,-99.99,Meteorologica,2013-03-08 17:15:00,
2013-03-08 11:20:00,57.2,41.6,30.10,South,178,7.4,12.3,55,0.00,,,-99.99,Meteorologica,2013-03-08 17:20:00,
2013-03-08 11:25:00,57.0,41.6,30.10,South,184,7.1,10.5,56,0.00,,,-99.99,Meteorologica,2013-03-08 17:25:00,
2013-03-08 11:30:00,57.1,41.9,30.10,ESE,115,4.1,10.8,56,0.00,,,-99.99,Meteorologica,2013-03-08 17:30:00,
2013-03-08 11:35:00,57.7,42.3,30.09,South,187,0.0,6.6,56,0.00,,,-99.99,Meteorologica,2013-03-08 17:35:00,
2013-03-08 11:40:00,58.2,42.3,30.09,South,178,8.1,13.5,55,0.00,,,-99.99,Meteorologica,2013-03-08 17:40:00,
2013-03-08 11:45:00,58.8,42.6,30.09,SE,134,2.7,10.8,54,0.00,,,-99.99,Meteorologica,2013-03-08 17:45:00,
2013-03-08 11:50:00,59.1,42.9,30.09,SSE,149,2.5,13.3,54,0.00,,,-99.99,Meteorologica,2013-03-08 17:50:00,
2013-03-08 11:55:00,58.9,42.3,30.09,SSW,196,7.8,11.3,54,0.00,,,-99.99,Meteorologica,2013-03-08 17:55:00,
2013-03-08 12:00:00,59.4,42.9,30.09,SE,138,4.8,9.7,54,0.00,,,-99.99,Meteorologica,2013-03-08 18:00:00,
2013-03-08 12:05:00,59.4,42.9,30.08,SE,131,7.0,15.8,54,0.00,,,-99.99,Meteorologica,2013-03-08 18:05:00,
2013-03-08 12:10:00,60.0,43.1,30.08,SE,144,6.6,11.6,53,0.00,,,-99.99,Meteorologica,2013-03-08 18:10:00,
2013-03-08 12:15:00,60.5,43.2,30.07,SSE,148,6.6,12.8,52,0.00,,,-99.99,Meteorologica,2013-03-08 18:15:00,
2013-03-08 12:20:00,60.8,43.4,30.07,SE,130,7.8,12.2,52,0.00,,,-99.99,Meteorologica,2013-03-08 18:20:00,
2013-03-08 12:25:00,60.9,43.4,30.08,South,178,8.9,14.3,52,0.00,,,-99.99,Meteorologica,2013-03-08 18:25:00,
2013-03-08 12:30:00,61.5,44.0,30.07,SE,135,7.1,13.8,52,0.00,,,-99.99,Meteorologica,2013-03-08 18:30:00,
2013-03-08 12:35:00,61.4,43.9,30.07,SSE,165,5.7,14.9,52,0.00,,,-99.99,Meteorologica,2013-03-08 18:35:00,
2013-03-08 12:40:00,61.7,44.2,30.06,South,188,6.3,13.5,52,0.00,,,-99.99,Meteorologica,2013-03-08 18:40:00,
2013-03-08 12:45:00,62.0,44.3,30.06,SW,227,8.7,12.0,52,0.00,,,-99.99,Meteorologica,2013-03-08 18:45:00,
2013-03-08 12:50:00,61.8,44.6,30.06,South,174,6.1,13.9,53,0.00,,,-99.99,Meteorologica,2013-03-08 18:50:00,
2013-03-08 12:55:00,61.9,44.4,30.05,East,98,8.4,11.9,52,0.00,,,-99.99,Meteorologica,2013-03-08 18:55:00,
2013-03-08 13:00:00,62.0,44.4,30.05,SSE,149,10.1,14.6,52,0.00,,,-99.99,Meteorologica,2013-03-08 19:00:00,
2013-03-08 13:05:00,62.0,44.6,30.04,South,178,8.0,15.6,52,0.00,,,-99.99,Meteorologica,2013-03-08 19:05:00,
2013-03-08 13:10:00,62.1,44.7,30.04,SE,132,6.6,12.0,52,0.00,,,-99.99,Meteorologica,2013-03-08 19:10:00,
2013-03-08 13:15:00,62.3,44.9,30.03,SSE,163,6.7,12.0,52,0.00,,,-99.99,Meteorologica,2013-03-08 19:15:00,
2013-03-08 13:20:00,62.6,45.1,30.03,SSE,154,8.2,13.3,52,0.00,,,-99.99,Meteorologica,2013-03-08 19:20:00,
2013-03-08 13:25:00,62.8,45.4,30.03,ESE,122,1.7,10.7,52,0.00,,,-99.99,Meteorologica,2013-03-08 19:25:00,
2013-03-08 13:30:00,62.8,45.5,30.03,South,182,2.6,10.2,53,0.00,,,-99.99,Meteorologica,2013-03-08 19:30:00,
2013-03-08 13:35:00,63.0,45.3,30.03,SSE,158,7.6,11.8,52,0.00,,,-99.99,Meteorologica,2013-03-08 19:35:00,
2013-03-08 13:40:00,63.0,45.5,30.03,SSE,164,5.3,10.7,52,0.00,,,-99.99,Meteorologica,2013-03-08 19:40:00,
2013-03-08 13:45:00,63.1,45.6,30.02,South,187,5.9,10.0,52,0.00,,,-99.99,Meteorologica,2013-03-08 19:45:00,
2013-03-08 13:50:00,63.0,45.6,30.02,ESE,106,6.4,11.0,52,0.00,,,-99.99,Meteorologica,2013-03-08 19:50:00,
2013-03-08 13:55:00,63.2,46.0,30.01,SE,133,7.2,12.3,53,0.00,,,-99.99,Meteorologica,2013-03-08 19:55:00,
2013-03-08 14:00:00,63.8,46.6,30.01,SE,143,8.5,13.0,53,0.00,,,-99.99,Meteorologica,2013-03-08 20:00:00,
2013-03-08 14:05:00,64.4,47.0,30.01,SSE,160,7.3,14.7,53,0.00,,,-99.99,Meteorologica,2013-03-08 20:05:00,
2013-03-08 14:10:00,64.6,46.8,30.00,ESE,119,7.0,13.7,52,0.00,,,-99.99,Meteorologica,2013-03-08 20:10:00,
2013-03-08 14:15:00,64.8,47.3,30.00,SE,144,8.8,12.1,52,0.00,,,-99.99,Meteorologica,2013-03-08 20:15:00,
2013-03-08 14:20:00,64.8,47.0,30.01,SE,144,5.1,13.1,52,0.00,,,-99.99,Meteorologica,2013-03-08 20:20:00,
2013-03-08 14:26:00,64.7,47.5,29.99,SE,132,6.4,9.3,53,0.00,,,-99.99,Meteorologica,2013-03-08 20:26:00,
2013-03-08 14:31:00,64.9,47.6,30.00,SSE,148,6.6,8.1,53,0.00,,,-99.99,Meteorologica,2013-03-08 20:31:00,
2013-03-08 14:36:00,65.0,48.0,29.99,SSE,156,1.5,0.0,54,0.00,,,-99.99,Meteorologica,2013-03-08 20:36:00,
2013-03-08 14:41:00,64.7,47.2,29.99,SSE,157,7.9,13.1,52,0.00,,,-99.99,Meteorologica,2013-03-08 20:41:00,
2013-03-08 14:46:00,64.1,46.8,29.99,SW,232,6.7,11.5,53,0.00,,,-99.99,Meteorologica,2013-03-08 20:46:00,
2013-03-08 14:51:00,63.3,46.8,29.99,SSE,163,5.5,6.8,54,0.00,,,-99.99,Meteorologica,2013-03-08 20:51:00,
2013-03-08 14:56:00,62.9,46.5,29.99,SSE,161,6.9,6.9,55,0.00,,,-99.99,Meteorologica,2013-03-08 20:56:00,
2013-03-08 15:01:00,62.5,46.5,29.98,SE,128,6.9,12.6,55,0.00,,,-99.99,Meteorologica,2013-03-08 21:01:00,
2013-03-08 15:06:00,62.4,46.6,29.98,SE,131,2.0,6.2,56,0.00,,,-99.99,Meteorologica,2013-03-08 21:06:00,
2013-03-08 15:12:00,62.5,46.5,29.98,SE,133,6.1,10.7,55,0.00,,,-99.99,Meteorologica,2013-03-08 21:12:00,
2013-03-08 15:17:00,62.5,46.5,29.98,SE,124,7.1,11.5,55,0.00,,,-99.99,Meteorologica,2013-03-08 21:17:00,
2013-03-08 15:22:00,62.2,46.7,29.98,ESE,110,10.9,19.9,56,0.00,,,-99.99,Meteorologica,2013-03-08 21:22:00,
2013-03-08 15:27:00,62.0,46.8,29.98,SE,146,8.6,12.3,57,0.00,,,-99.99,Meteorologica,2013-03-08 21:27:00,
2013-03-08 15:32:00,61.8,46.8,29.98,SE,145,8.9,14.4,57,0.00,,,-99.99,Meteorologica,2013-03-08 21:32:00,
2013-03-08 15:38:00,61.7,46.9,29.98,SE,133,8.6,16.9,58,0.00,,,-99.99,Meteorologica,2013-03-08 21:38:00,
2013-03-08 15:44:00,61.5,46.9,29.98,SSE,164,9.4,16.0,58,0.00,,,-99.99,Meteorologica,2013-03-08 21:44:00,
2013-03-08 15:49:00,61.6,47.4,29.97,ESE,120,6.3,14.4,59,0.00,,,-99.99,Meteorologica,2013-03-08 21:49:00,
2013-03-08 15:54:00,61.6,47.6,29.97,SE,128,6.0,16.4,59,0.00,,,-99.99,Meteorologica,2013-03-08 21:54:00,
2013-03-08 15:59:00,61.6,47.6,29.97,South,179,6.8,18.8,59,0.00,,,-99.99,Meteorologica,2013-03-08 21:59:00,
2013-03-08 16:04:00,61.7,47.9,29.97,SSE,164,8.4,15.1,60,0.00,,,-99.99,Meteorologica,2013-03-08 22:04:00,
2013-03-08 16:09:00,61.7,48.0,29.96,SE,127,9.4,14.9,60,0.00,,,-99.99,Meteorologica,2013-03-08 22:09:00,
2013-03-08 16:14:00,61.6,48.2,29.96,South,172,7.8,14.9,61,0.00,,,-99.99,Meteorologica,2013-03-08 22:14:00,
2013-03-08 16:19:00,61.5,48.3,29.96,SE,125,8.5,16.6,61,0.00,,,-99.99,Meteorologica,2013-03-08 22:19:00,
2013-03-08 16:24:00,61.3,48.4,29.96,SSE,161,8.0,19.2,62,0.00,,,-99.99,Meteorologica,2013-03-08 22:24:00,
2013-03-08 16:29:00,61.3,48.6,29.96,SE,135,7.4,17.5,62,0.00,,,-99.99,Meteorologica,2013-03-08 22:29:00,
2013-03-08 16:34:00,61.1,48.5,29.96,South,183,9.2,18.4,62,0.00,,,-99.99,Meteorologica,2013-03-08 22:34:00,
2013-03-08 16:39:00,61.0,48.6,29.96,SSE,152,10.7,19.3,63,0.00,,,-99.99,Meteorologica,2013-03-08 22:39:00,
2013-03-08 16:44:00,61.0,48.8,29.96,ESE,113,5.6,12.7,63,0.00,,,-99.99,Meteorologica,2013-03-08 22:44:00,
2013-03-08 16:49:00,60.9,48.7,29.95,SE,133,7.9,16.1,63,0.00,,,-99.99,Meteorologica,2013-03-08 22:49:00,
2013-03-08 16:54:00,60.8,48.7,29.95,SSE,156,6.8,17.1,64,0.00,,,-99.99,Meteorologica,2013-03-08 22:54:00,
2013-03-08 16:59:00,60.7,48.6,29.95,South,172,9.5,17.7,64,0.00,,,-99.99,Meteorologica,2013-03-08 22:59:00,
2013-03-08 17:04:00,60.5,48.7,29.95,SE,144,8.1,17.2,64,0.00,,,-99.99,Meteorologica,2013-03-08 23:04:00,
2013-03-08 17:09:00,60.3,48.8,29.95,South,176,9.0,16.4,65,0.00,,,-99.99,Meteorologica,2013-03-08 23:09:00,
2013-03-08 17:14:00,60.3,48.8,29.95,SSE,168,6.4,15.0,65,0.00,,,-99.99,Meteorologica,2013-03-08 23:14:00,
2013-03-08 17:19:00,60.2,48.9,29.95,SSE,151,4.9,17.5,66,0.00,,,-99.99,Meteorologica,2013-03-08 23:19:00,
2013-03-08 17:24:00,60.1,49.1,29.95,SE,143,7.3,18.2,66,0.00,,,-99.99,Meteorologica,2013-03-08 23:24:00,
2013-03-08 17:29:00,60.0,49.1,29.95,SSE,152,9.4,14.4,66,0.00,,,-99.99,Meteorologica,2013-03-08 23:29:00,
2013-03-08 17:34:00,60.0,49.1,29.95,SSE,150,5.4,11.0,66,0.00,,,-99.99,Meteorologica,2013-03-08 23:34:00,
2013-03-08 17:39:00,60.0,49.2,29.95,South,179,6.7,15.8,67,0.00,,,-99.99,Meteorologica,2013-03-08 23:39:00,
2013-03-08 17:44:00,59.9,49.2,29.95,SE,135,6.9,15.6,67,0.00,,,-99.99,Meteorologica,2013-03-08 23:44:00,
2013-03-08 17:49:00,59.9,49.3,29.94,South,173,7.9,12.6,67,0.00,,,-99.99,Meteorologica,2013-03-08 23:49:00,
2013-03-08 17:54:00,59.7,49.2,29.94,SSE,159,7.2,13.9,67,0.00,,,-99.99,Meteorologica,2013-03-08 23:54:00,
2013-03-08 17:59:00,59.8,49.4,29.94,SSE,165,7.1,19.0,68,0.00,,,-99.99,Meteorologica,2013-03-08 23:59:00,
2013-03-08 18:04:00,59.7,49.4,29.94,SE,132,7.6,11.4,68,0.00,,,-99.99,Meteorologica,2013-03-09 00:04:00,
2013-03-08 18:09:00,59.8,49.5,29.94,SSE,155,6.2,10.7,68,0.00,,,-99.99,Meteorologica,2013-03-09 00:09:00,
2013-03-08 18:14:00,59.8,49.7,29.94,SE,141,7.0,16.2,68,0.00,,,-99.99,Meteorologica,2013-03-09 00:14:00,
2013-03-08 18:19:00,59.7,49.6,29.94,South,169,7.1,14.8,68,0.00,,,-99.99,Meteorologica,2013-03-09 00:19:00,
2013-03-08 18:24:00,59.6,49.5,29.94,SE,135,8.0,16.4,69,0.00,,,-99.99,Meteorologica,2013-03-09 00:24:00,
2013-03-08 18:29:00,59.6,49.6,29.94,SSE,167,10.8,19.7,69,0.00,,,-99.99,Meteorologica,2013-03-09 00:29:00,
2013-03-08 18:34:00,59.6,49.6,29.94,SSE,152,9.1,17.0,69,0.00,,,-99.99,Meteorologica,2013-03-09 00:34:00,
2013-03-08 18:39:00,59.4,49.6,29.94,SE,139,11.6,17.1,69,0.00,,,-99.99,Meteorologica,2013-03-09 00:39:00,
2013-03-08 18:44:00,59.5,49.8,29.94,SE,129,6.9,16.4,69,0.00,,,-99.99,Meteorologica,2013-03-09 00:44:00,
2013-03-08 18:49:00,59.4,49.7,29.94,SSE,154,10.9,19.7,69,0.00,,,-99.99,Meteorologica,2013-03-09 00:49:00,
2013-03-08 18:54:00,59.3,49.7,29.94,South,176,6.7,15.9,70,0.00,,,-99.99,Meteorologica,2013-03-09 00:54:00,
2013-03-08 18:59:00,59.2,49.6,29.94,South,169,9.0,15.9,70,0.00,,,-99.99,Meteorologica,2013-03-09 00:59:00,
2013-03-08 19:04:00,59.0,49.5,29.94,SSE,167,6.7,16.6,70,0.00,,,-99.99,Meteorologica,2013-03-09 01:04:00,
2013-03-08 19:09:00,58.9,49.6,29.94,SE,146,7.3,17.4,70,0.00,,,-99.99,Meteorologica,2013-03-09 01:09:00,
2013-03-08 19:14:00,58.8,49.8,29.94,SSE,149,8.3,17.1,71,0.00,,,-99.99,Meteorologica,2013-03-09 01:14:00,
2013-03-08 19:19:00,58.6,49.8,29.94,ESE,121,12.4,21.1,72,0.00,,,-99.99,Meteorologica,2013-03-09 01:19:00,
2013-03-08 19:24:00,58.5,50.0,29.94,SE,137,8.6,21.8,72,0.00,,,-99.99,Meteorologica,2013-03-09 01:24:00,
2013-03-08 19:29:00,58.4,49.9,29.94,SSE,162,15.1,22.9,72,0.00,,,-99.99,Meteorologica,2013-03-09 01:29:00,
2013-03-08 19:34:00,58.3,50.0,29.94,SE,144,9.3,22.6,73,0.00,,,-99.99,Meteorologica,2013-03-09 01:34:00,
2013-03-08 19:39:00,58.2,50.1,29.94,South,169,8.6,17.3,74,0.00,,,-99.99,Meteorologica,2013-03-09 01:39:00,
2013-03-08 19:44:00,57.9,50.2,29.95,SSE,156,10.5,19.2,75,0.00,,,-99.99,Meteorologica,2013-03-09 01:44:00,
2013-03-08 19:49:00,57.6,50.9,29.95,South,173,8.5,23.0,78,0.00,,,-99.99,Meteorologica,2013-03-09 01:49:00,
2013-03-08 19:54:00,57.2,51.0,29.95,SE,138,9.3,19.1,79,0.00,,,-99.99,Meteorologica,2013-03-09 01:54:00,
2013-03-08 19:59:00,56.8,51.0,29.94,SSE,158,10.4,16.3,80,0.00,,,-99.99,Meteorologica,2013-03-09 01:59:00,
2013-03-08 20:04:00,56.2,50.7,29.95,South,188,6.6,18.3,81,0.00,,,-99.99,Meteorologica,2013-03-09 02:04:00,
2013-03-08 20:09:00,55.6,55.6,29.95,South,183,7.5,17.1,100,0.00,,,-99.99,Meteorologica,2013-03-09 02:09:00,
2013-03-08 20:14:00,55.6,55.6,29.95,SSE,166,10.3,15.0,100,0.00,,,-99.99,Meteorologica,2013-03-09 02:14:00,
2013-03-08 20:19:00,55.0,50.1,29.94,SE,137,10.9,19.0,83,0.00,,,-99.99,Meteorologica,2013-03-09 02:19:00,
2013-03-08 20:24:00,55.1,50.1,29.94,SE,138,5.7,15.1,83,0.00,,,-99.99,Meteorologica,2013-03-09 02:24:00,
2013-03-08 20:29:00,54.8,49.9,29.94,South,186,9.2,15.0,83,0.00,,,-99.99,Meteorologica,2013-03-09 02:29:00,
2013-03-08 20:34:00,54.8,54.8,29.95,East,91,7.3,14.3,83,0.00,,,-99.99,Meteorologica,2013-03-09 02:34:00,
2013-03-08 20:39:00,54.7,50.0,29.95,SSW,203,7.6,15.4,84,0.00,,,-99.99,Meteorologica,2013-03-09 02:39:00,
2013-03-08 20:44:00,54.5,49.9,29.95,SSW,196,10.3,15.1,84,0.00,,,-99.99,Meteorologica,2013-03-09 02:44:00,
2013-03-08 20:49:00,54.3,49.8,29.95,SW,235,5.1,14.0,84,0.00,,,-99.99,Meteorologica,2013-03-09 02:49:00,
2013-03-08 20:54:00,54.1,49.6,29.96,SSW,205,7.8,15.0,84,0.00,,,-99.99,Meteorologica,2013-03-09 02:54:00,
2013-03-08 20:59:00,53.9,49.5,29.95,SE,143,9.4,19.0,85,0.00,,,-99.99,Meteorologica,2013-03-09 02:59:00,
2013-03-08 21:04:00,54.0,49.6,29.95,South,179,7.7,14.9,84,0.00,,,-99.99,Meteorologica,2013-03-09 03:04:00,
2013-03-08 21:09:00,53.8,49.4,29.96,South,173,7.7,14.3,84,0.00,,,-99.99,Meteorologica,2013-03-09 03:09:00,
2013-03-08 21:14:00,54.0,49.7,29.96,SSE,151,4.2,16.2,85,0.00,,,-99.99,Meteorologica,2013-03-09 03:14:00,
2013-03-08 21:19:00,53.9,49.9,29.96,South,175,7.1,13.8,86,0.00,,,-99.99,Meteorologica,2013-03-09 03:19:00,
2013-03-08 21:24:00,53.5,49.7,29.95,SSE,165,9.4,19.1,87,0.00,,,-99.99,Meteorologica,2013-03-09 03:24:00,
2013-03-08 21:29:00,53.5,49.8,29.95,South,183,7.1,14.8,87,0.00,,,-99.99,Meteorologica,2013-03-09 03:29:00,
2013-03-08 21:34:00,53.5,49.8,29.95,South,173,5.9,15.5,87,0.00,,,-99.99,Meteorologica,2013-03-09 03:34:00,
2013-03-08 21:39:00,53.2,49.5,29.95,SE,142,9.9,15.6,87,0.00,,,-99.99,Meteorologica,2013-03-09 03:39:00,
2013-03-08 21:44:00,53.3,49.6,29.95,SE,139,6.7,13.1,87,0.00,,,-99.99,Meteorologica,2013-03-09 03:44:00,
2013-03-08 21:49:00,53.2,49.4,29.95,SSE,158,4.7,20.5,87,0.00,,,-99.99,Meteorologica,2013-03-09 03:49:00,
2013-03-08 21:54:00,53.3,49.5,29.94,SSW,194,5.7,13.7,86,0.00,,,-99.99,Meteorologica,2013-03-09 03:54:00,
2013-03-08 21:59:00,53.2,49.2,29.94,SE,146,4.9,11.7,86,0.00,,,-99.99,Meteorologica,2013-03-09 03:59:00,
2013-03-08 22:04:00,53.2,49.2,29.94,South,188,6.9,12.7,86,0.00,,,-99.99,Meteorologica,2013-03-09 04:04:00,
2013-03-08 22:09:00,53.2,49.2,29.93,SW,223,6.4,12.9,86,0.00,,,-99.99,Meteorologica,2013-03-09 04:09:00,
2013-03-08 22:14:00,53.0,49.2,29.94,South,169,7.0,11.5,86,0.00,,,-99.99,Meteorologica,2013-03-09 04:14:00,
2013-03-08 22:19:00,53.0,49.2,29.94,SSE,154,6.1,12.4,86,0.00,,,-99.99,Meteorologica,2013-03-09 04:19:00,
2013-03-08 22:24:00,52.8,49.0,29.94,South,179,3.0,8.7,87,0.00,,,-99.99,Meteorologica,2013-03-09 04:24:00,
2013-03-08 22:29:00,52.9,49.0,29.94,SSE,167,7.1,13.8,86,0.00,,,-99.99,Meteorologica,2013-03-09 04:29:00,
2013-03-08 22:34:00,52.8,48.8,29.94,South,169,6.7,12.3,86,0.00,,,-99.99,Meteorologica,2013-03-09 04:34:00,
2013-03-08 22:39:00,52.8,48.8,29.93,SSE,168,6.4,9.7,86,0.00,,,-99.99,Meteorologica,2013-03-09 04:39:00,
2013-03-08 22:44:00,52.8,48.8,29.93,SW,215,1.6,7.8,86,0.00,,,-99.99,Meteorologica,2013-03-09 04:44:00,
2013-03-08 22:49:00,52.8,48.8,29.93,South,183,5.2,12.3,86,0.00,,,-99.99,Meteorologica,2013-03-09 04:49:00,
2013-03-08 22:54:00,52.7,48.7,29.93,SW,235,3.8,9.3,86,0.00,,,-99.99,Meteorologica,2013-03-09 04:54:00,
2013-03-08 22:59:00,52.8,48.8,29.92,South,175,5.6,8.7,86,0.00,,,-99.99,Meteorologica,2013-03-09 04:59:00,
2013-03-08 23:01:00,52.7,48.7,29.92,South,174,4.2,7.1,86,0.00,,,-99.99,Meteorologica,2013-03-09 05:01:00,
2013-03-08 23:06:00,52.6,48.5,29.92,SE,144,6.6,8.2,86,0.00,,,-99.99,Meteorologica,2013-03-09 05:06:00,
2013-03-08 23:11:00,52.7,48.5,29.93,South,177,4.6,6.2,85,0.00,,,-99.99,Meteorologica,2013-03-09 05:11:00,
2013-03-08 23:12:00,52.7,48.5,29.92,South,185,5.8,8.7,85,0.00,,,-99.99,Meteorologica,2013-03-09 05:12:00,
2013-03-08 23:17:00,52.7,48.4,29.92,South,191,4.5,7.7,85,0.00,,,-99.99,Meteorologica,2013-03-09 05:17:00,
2013-03-08 23:22:00,52.7,48.2,29.92,SSE,150,5.0,8.1,84,0.00,,,-99.99,Meteorologica,2013-03-09 05:22:00,
2013-03-08 23:27:00,52.6,48.1,29.91,SSE,155,5.3,7.3,84,0.00,,,-99.99,Meteorologica,2013-03-09 05:27:00,
2013-03-08 23:32:00,52.7,48.0,29.91,SSW,201,5.4,7.0,83,0.00,,,-99.99,Meteorologica,2013-03-09 05:32:00,
2013-03-08 23:37:00,52.6,47.7,29.91,ESE,116,3.9,7.8,83,0.00,,,-99.99,Meteorologica,2013-03-09 05:37:00,
2013-03-08 23:42:00,52.7,47.5,29.91,South,188,5.2,7.4,82,0.00,,,-99.99,Meteorologica,2013-03-09 05:42:00,
2013-03-08 23:47:00,52.8,47.2,29.89,SSW,193,5.1,11.6,81,0.00,,,-99.99,Meteorologica,2013-03-09 05:47:00,
2013-03-08 23:52:00,52.9,47.1,29.90,SW,218,5.8,9.8,80,0.00,,,-99.99,Meteorologica,2013-03-09 05:52:00,
2013-03-08 23:57:00,52.9,46.8,29.89,ESE,119,5.0,10.7,79,0.00,,,-99.99,Meteorologica,2013-03-09 05:57:00,